• Join FlightAware (Why Join?)
  • Login
  • US Flag 
04:56PM EST


 

Airport Tracker/Info


-or-


 

Live Flight TrackerFlight Track Log ✈ MLN965 ✈ 06-Jul-2013 ✈ KSLC - KPIT

Flight Track Log - Related Links

Times and Time Zones

All times are in EDT time to prevent confusion due to time zone crossing. See the MLN965 flight status page for this flight to view local times or setup timezone preferences in your user account.

Time Position Orientation Groundspeed Altitude Reporting Facility
EDT Latitude Longitude Course Direction KTS MPH feet Rate Location/Type
02:06PM 40.7661 -112.0386 267° West 261 300 7,400  Level Salt Lake Center
02:07PM 40.8317 -112.0861 331° Northwest 284 327 8,900 1,500 Climbing Salt Lake Center
02:08PM 40.8675 -112.0081 59° Northeast 259 298 10,600 2,220 Climbing Salt Lake Center
02:09PM 40.8844 -111.8986 78° East 272 313 13,600 2,460 Climbing Salt Lake Center
02:10PM 40.9011 -111.7792 80° East 342 394 15,700 2,160 Climbing Salt Lake Center
02:11PM 40.9375 -111.6525 69° East 377 434 18,100 2,340 Climbing Salt Lake Center
02:12PM 40.9717 -111.5231 71° East 377 434 20,600 2,640 Climbing Salt Lake Center
02:13PM 41.0089 -111.3586 73° East 392 451 23,600 2,700 Climbing Salt Lake Center
02:14PM 41.0292 -111.2136 79° East 401 461 26,200 2,400 Climbing Salt Lake Center
02:15PM 41.0508 -111.0622 79° East 415 478 28,600 2,400 Climbing Salt Lake Center
02:16PM 41.0733 -110.9081 79° East 426 490 31,200 1,980 Climbing Salt Lake Center
02:17PM 41.0958 -110.7514 79° East 431 496 32,700 1,500 Climbing Salt Lake Center
02:18PM 41.1200 -110.5819 79° East 449 517 34,300 1,200 Climbing Salt Lake Center
02:19PM 41.1472 -110.3889 79° East 471 542 35,200 1,080 Climbing Salt Lake Center
02:20PM 41.1697 -110.2158 80° East 493 567 36,600 1,500 Climbing Salt Lake Center
02:21PM 41.1981 -110.0142 79° East 497 572 38,300 1,500 Climbing Salt Lake Center
02:22PM 41.2222 -109.8431 79° East 496 571 39,800 1,140 Climbing Salt Lake Center
02:23PM 41.2478 -109.6442 80° East 492 566 40,700 540 Climbing Salt Lake Center
02:24PM 41.2708 -109.4697 80° East 501 577 41,000 120 Climbing Salt Lake Center
02:25PM 41.2969 -109.2614 80° East 514 592 41,000  Level Salt Lake Center
02:26PM 41.3236 -109.0533 80° East 522 601 41,000  Level Salt Lake Center
02:27PM 41.3478 -108.8775 80° East 516 594 41,000  Level Salt Lake Center
02:28PM 41.3736 -108.6700 81° East 513 590 41,000  Level Salt Lake Center
02:29PM 41.3964 -108.4900 80° East 516 594 41,000  Level Salt Lake Center
02:30PM 41.4217 -108.2806 81° East 515 593 41,000  Level Salt Lake Center
02:31PM 41.4428 -108.1022 81° East 511 588 41,000  Level Salt Lake Center
02:32PM 41.4669 -107.8953 81° East 508 585 41,000  Level Salt Lake Center
02:33PM 41.4869 -107.7175 81° East 507 583 41,000  Level Salt Lake Center
02:35PM 41.5072 -107.5406 81° East 506 582 41,000  Level Salt Lake Center
02:36PM 41.5311 -107.3333 81° East 508 585 41,000  Level Salt Lake Center
02:37PM 41.5514 -107.1556 81° East 510 587 41,000  Level Salt Lake Center
02:38PM 41.5736 -106.9475 82° East 509 586 41,000  Level Salt Lake Center
02:39PM 41.5922 -106.7683 82° East 511 588 41,000  Level Salt Lake Center
02:40PM 41.6142 -106.5569 82° East 512 589 41,000  Level Salt Lake Center
02:41PM 41.6322 -106.3764 82° East 514 592 41,000  Level Salt Lake Center
02:42PM 41.6586 -106.1031 83° East 523 602 41,000  Level Denver Center
02:43PM 41.6825 -105.8939 81° East 514 592 41,000  Level Denver Center
02:44PM 41.7008 -105.7156 82° East 509 586 41,000  Level Denver Center
02:45PM 41.7197 -105.5053 83° East 509 586 41,000  Level Denver Center
02:46PM 41.7372 -105.3219 83° East 519 597 41,000  Level Denver Center
02:47PM 41.7536 -105.1436 83° East 510 587 41,000  Level Denver Center
02:48PM 41.7722 -104.9339 83° East 512 589 41,000  Level Denver Center
02:49PM 41.7883 -104.7517 83° East 513 590 41,000  Level Denver Center
02:50PM 41.8061 -104.5456 83° East 504 580 41,000  Level Denver Center
02:51PM 41.8211 -104.3667 84° East 508 585 41,000  Level Denver Center
02:52PM 41.8389 -104.1597 83° East 504 580 41,000  Level Denver Center
02:54PM 41.8586 -103.9225 84° East 503 579 41,000  Level Denver Center
02:55PM 41.8725 -103.7447 84° East 503 579 41,000  Level Denver Center
02:56PM 41.8894 -103.5344 84° East 508 585 41,000  Level Denver Center
02:57PM 41.9017 -103.3519 85° East 513 590 41,000  Level Denver Center
02:58PM 41.9139 -103.1728 85° East 509 586 41,000  Level Denver Center
02:59PM 41.9281 -102.9636 85° East 509 586 41,000  Level Denver Center
03:00PM 41.9383 -102.7844 86° East 506 582 41,000  Level Denver Center
03:01PM 41.9514 -102.5753 85° East 505 581 41,000  Level Denver Center
03:02PM 41.9628 -102.3950 85° East 505 581 41,000  Level Denver Center
03:03PM 41.9736 -102.2125 85° East 505 581 41,000  Level Denver Center
03:04PM 41.9853 -102.0014 86° East 506 582 41,000  Level Denver Center
03:05PM 41.9958 -101.8200 85° East 509 586 41,000  Level Denver Center
03:06PM 42.0050 -101.6683 85° East 509 586 41,000  Level Denver Center
03:07PM 42.0156 -101.4292 87° East 504 580 41,000  Level Denver Center
03:08PM 42.0261 -101.2172 86° East 506 582 41,000  Level Denver Center
03:09PM 42.0353 -101.0356 86° East 507 583 41,000  Level Denver Center
03:10PM 42.0433 -100.8547 87° East 505 581 41,000  Level Denver Center
03:11PM 42.0519 -100.6444 87° East 504 580 41,000  Level Denver Center
03:12PM 42.0597 -100.4636 87° East 506 582 41,000  Level Denver Center
03:13PM 42.0644 -100.3406 87° East 507 583 41,000  Level Minneapolis Center
03:14PM 42.0717 -100.1528 87° East 504 580 41,000  Level Minneapolis Center
03:15PM 42.0794 -99.9664 87° East 500 575 41,000  Level Minneapolis Center
03:16PM 42.0881 -99.7764 86° East 503 579 41,000  Level Minneapolis Center
03:17PM 42.0944 -99.5536 88° East 498 573 41,000  Level Minneapolis Center
03:18PM 42.1006 -99.3672 87° East 497 572 41,000  Level Minneapolis Center
03:19PM 42.1069 -99.1803 87° East 499 574 41,000  Level Minneapolis Center
03:20PM 42.1125 -98.9922 88° East 500 575 41,000  Level Minneapolis Center
03:21PM 42.1175 -98.8067 88° East 495 570 41,000  Level Minneapolis Center
03:22PM 42.1228 -98.6192 88° East 497 572 41,000  Level Minneapolis Center
03:23PM 42.1269 -98.4331 88° East 496 571 41,000  Level Minneapolis Center
03:24PM 42.1308 -98.2469 88° East 496 571 41,000  Level Minneapolis Center
03:25PM 42.1364 -98.0247 88° East 495 570 41,000  Level Minneapolis Center
03:26PM 42.1392 -97.8414 89° East 490 564 41,000  Level Minneapolis Center
03:27PM 42.1419 -97.6675 89° East 490 564 41,000  Level Minneapolis Center
03:28PM 42.1458 -97.4858 88° East 485 558 41,000  Level Minneapolis Center
03:29PM 42.1481 -97.3042 89° East 485 558 41,000  Level Minneapolis Center
03:30PM 42.1514 -97.1236 89° East 483 556 41,000  Level Minneapolis Center
03:31PM 42.1533 -96.9428 89° East 482 555 41,000  Level Minneapolis Center
03:32PM 42.1544 -96.7603 89° East 484 557 41,000  Level Minneapolis Center
03:33PM 42.1569 -96.5414 89° East 485 558 41,000  Level Minneapolis Center
03:34PM 42.1578 -96.3608 90° East 483 556 41,000  Level Minneapolis Center
03:35PM 42.1581 -96.1794 90° East 481 554 41,000  Level Minneapolis Center
03:36PM 42.1594 -95.9992 89° East 481 554 41,000  Level Minneapolis Center
03:38PM 42.1592 -95.8183 90° East 479 551 41,000  Level Minneapolis Center
03:39PM 42.1597 -95.6764 90° East 476 548 41,000  Level Minneapolis Center
03:40PM 42.1583 -95.4614 90° East 476 548 41,000  Level Minneapolis Center
03:41PM 42.1583 -95.2833 90° East 474 545 41,000  Level Minneapolis Center
03:42PM 42.1572 -95.1081 90° East 469 540 41,000  Level Minneapolis Center
03:43PM 42.1564 -94.9317 90° East 470 541 41,000  Level Minneapolis Center
03:44PM 42.1547 -94.7181 91° East 473 544 41,000  Level Minneapolis Center
03:45PM 42.1528 -94.5397 91° East 474 545 41,000  Level Minneapolis Center
03:46PM 42.1497 -94.3628 91° East 472 543 41,000  Level Minneapolis Center
03:47PM 42.1486 -94.1861 90° East 471 542 41,000  Level Minneapolis Center
03:48PM 42.1461 -94.0119 91° East 467 537 41,000  Level Minneapolis Center
03:49PM 42.1439 -93.8450 91° East 469 540 41,000  Level Minneapolis Center
03:50PM 42.1406 -93.6719 91° East 468 539 41,000  Level Minneapolis Center
03:51PM 42.1378 -93.4633 91° East 469 540 41,000  Level Minneapolis Center
03:52PM 42.1333 -93.2886 92° East 472 543 41,000  Level Minneapolis Center
03:53PM 42.1292 -93.1142 92° East 471 542 41,000  Level Minneapolis Center
03:54PM 42.1258 -92.9389 91° East 473 544 41,000  Level Minneapolis Center
03:55PM 42.1214 -92.7661 92° East 470 541 41,000  Level Minneapolis Center
03:56PM 42.1175 -92.5928 92° East 469 540 41,000  Level Minneapolis Center
03:57PM 42.1114 -92.3864 92° East 467 537 41,000  Level Minneapolis Center
03:58PM 42.1061 -92.2167 92° East 464 534 41,000  Level Minneapolis Center
03:59PM 42.1014 -92.0494 92° East 458 527 41,000  Level Minneapolis Center
04:00PM 42.0956 -91.8772 93° East 463 533 41,000  Level Minneapolis Center
04:01PM 42.0883 -91.7017 93° East 471 542 41,000  Level Minneapolis Center
04:02PM 42.0814 -91.5017 93° East 464 534 41,000  Level Minneapolis Center
04:03PM 42.0731 -91.3194 93° East 459 528 41,000  Level Minneapolis Center
04:04PM 42.0669 -91.1025 92° East 451 519 41,000  Level Chicago Center
04:06PM 42.0597 -90.9369 93° East 450 518 41,000  Level Chicago Center
04:07PM 42.0539 -90.7675 93° East 460 529 41,000  Level Chicago Center
04:08PM 42.0458 -90.5933 94° East 464 534 41,000  Level Chicago Center
04:09PM 42.0381 -90.4292 94° East 456 525 41,000  Level Chicago Center
04:10PM 42.0294 -90.2308 93° East 451 519 41,000  Level Chicago Center
04:11PM 42.0225 -90.0667 93° East 448 516 41,000  Level Chicago Center
04:12PM 42.0131 -89.9014 94° East 438 504 41,000  Level Chicago Center
04:13PM 42.0050 -89.7383 94° East 440 506 41,000  Level Chicago Center
04:14PM 41.9964 -89.5750 94° East 442 509 41,000  Level Chicago Center
04:15PM 41.9869 -89.4083 94° East 448 516 41,000  Level Chicago Center
04:16PM 41.9753 -89.2089 94° East 449 517 41,000  Level Chicago Center
04:17PM 41.9664 -89.0450 94° East 444 511 41,000  Level Chicago Center
04:18PM 41.9556 -88.8778 95° East 448 516 41,000  Level Chicago Center
04:19PM 41.9472 -88.7081 94° East 456 525 41,000  Level Chicago Center
04:20PM 41.9369 -88.5397 95° East 454 522 41,000  Level Chicago Center
04:21PM 41.9258 -88.3719 95° East 451 519 41,000  Level Chicago Center
04:22PM 41.9144 -88.2042 95° East 450 518 41,000  Level Chicago Center
04:23PM 41.9022 -88.0033 95° East 447 514 41,000  Level Chicago Center
04:24PM 41.8908 -87.8353 95° East 451 519 41,000  Level Chicago Center
04:25PM 41.8789 -87.6667 95° East 453 521 41,000  Level Chicago Center
04:26PM 41.8664 -87.4992 96° East 453 521 41,000  Level Chicago Center
04:27PM 41.8542 -87.3286 95° East 457 526 41,000  Level Chicago Center
04:28PM 41.8417 -87.1583 96° East 460 529 41,000  Level Chicago Center
04:29PM 41.8292 -86.9889 96° East 459 528 41,000  Level Chicago Center
04:30PM 41.8131 -86.7886 96° East 454 522 41,000  Level Chicago Center
04:31PM 41.8011 -86.6481 96° East 452 520 41,000  Level Chicago Center
04:32PM 41.7858 -86.4461 96° East 454 522 41,000  Level Chicago Center
04:33PM 41.7725 -86.2772 96° East 456 525 41,000  Level Chicago Center
04:34PM 41.7572 -86.1047 97° East 464 534 41,000  Level Chicago Center
04:35PM 41.7431 -85.9331 96° East 466 536 41,000  Level Chicago Center
04:36PM 41.7289 -85.7608 96° East 465 535 41,000  Level Chicago Center
04:37PM 41.7156 -85.5878 96° East 466 536 41,000  Level Chicago Center
04:39PM 41.6942 -85.3919 98° East 470 541 41,000  Level Chicago Center
04:40PM 41.6803 -85.2211 96° East 478 550 41,000  Level Chicago Center
04:41PM 41.6661 -85.0444 96° East 479 551 41,000  Level Chicago Center
04:42PM 41.6433 -84.8369 98° East 472 543 41,000  Level Chicago Center
04:43PM 41.6139 -84.6661 103° East 472 543 41,000  Level Chicago Center
04:44PM 41.5864 -84.4958 102° East 472 543 41,000  Level Chicago Center
04:45PM 41.5581 -84.3244 102° East 473 544 41,000  Level Chicago Center
04:46PM 41.5422 -84.1483 97° East 478 550 41,000  Level Chicago Center
04:47PM 41.5275 -83.9731 96° East 476 548 41,000  Level Chicago Center
04:48PM 41.5092 -83.7672 97° East 469 540 41,000 -300 Level Chicago Center
04:49PM 41.4950 -83.5947 96° East 469 540 40,400 -900 Descending Chicago Center
04:50PM 41.4731 -83.3989 98° East 473 544 39,100 -1,320 Descending Cleveland Center
04:51PM 41.4564 -83.2153 97° East 487 560 37,700 -1,500 Descending Cleveland Center
04:52PM 41.4417 -83.0372 96° East 487 560 36,200 -1,020 Descending Cleveland Center
04:53PM 41.4514 -82.8742 85° East 487 560 35,700 -720 Descending Cleveland Center
04:54PM 41.4942 -82.7011 72° East 478 550 34,800 -900 Descending Cleveland Center
04:55PM 41.5225 -82.5217 78° East 489 563 33,900 -900 Descending Cleveland Center
04:56PM 41.4836 -82.3458 106° East 482 555 33,000 -480 Descending Cleveland Center
04:57PM 41.3981 -82.2164 131° Southeast 453 521 33,000  Level Cleveland Center
04:58PM 41.3272 -82.0486 119° Southeast 464 534 33,000 -780 Level Cleveland Center
04:59PM 41.2750 -81.8844 113° Southeast 464 534 31,500 -4,500 Descending Cleveland Center
05:00PM 41.2247 -81.7206 112° Southeast 469 540 24,000 -3,780 Descending Cleveland Center
05:01PM 41.1867 -81.5569 107° East 469 540 24,000 -600 Level Cleveland Center
05:02PM 41.1689 -81.4272 100° East 459 528 22,900 -2,220 Descending Cleveland Center
05:03PM 41.1431 -81.2475 101° East 451 519 19,600 -3,120 Descending Cleveland Center
05:04PM 41.1231 -81.0903 100° East 445 512 16,700 -3,180 Descending Cleveland Center
05:05PM 41.0986 -80.9331 102° East 420 483 13,300 -2,700 Descending Cleveland Center
05:06PM 41.0906 -80.8228 96° East 400 460 11,300 -1,680 Descending Cleveland Center
05:07PM 41.0614 -80.6850 106° East 370 426 10,000 -660 Descending Cleveland Center
05:08PM 41.0322 -80.5694 108° East 344 396 10,000 -60 Level Cleveland Center
05:09PM 41.0072 -80.4647 108° East 317 365 9,900 -60 Descending Cleveland Center
05:10PM 40.9300 -80.4128 153° Southeast 283 326 9,900 -420 Level Cleveland Center
05:11PM 40.8425 -80.3717 160° South 289 333 9,100 -1,380 Descending Cleveland Center
05:12PM 40.7756 -80.3392 160° South 294 338 7,200 -1,620 Descending Cleveland Center
05:13PM 40.7025 -80.3011 158° South 288 331 5,900 -660 Descending Cleveland Center
05:14PM 40.6336 -80.2658 159° South 283 326 5,900 -360 Level Cleveland Center
05:15PM 40.5856 -80.2114 139° Southeast 270 311 5,200 -960 Descending Cleveland Center
05:16PM 40.5894 -80.1100 87° East 223 257 4,000 -1,200 Descending Cleveland Center
05:18PM 40.4833 -80.2167 123° Southeast  Level FlightAware Approximate
05:25PM 40.4915 -80.2329 123° Southeast  Level Estimated
05:26PM 40.4915 -80.2329 123° Southeast  Level Estimated